sensor_id;sensor_type;location;lat;lon;timestamp;P1;durP1;ratioP1;P2;durP2;ratioP2
22270;SDS011;11304;53.520;10.104;2023-04-02T00:01:17;5.85;;;1.58;;
22270;SDS011;11304;53.520;10.104;2023-04-02T00:11:38;8.85;;;2.25;;
22270;SDS011;11304;53.520;10.104;2023-04-02T00:14:05;5.20;;;1.33;;
22270;SDS011;11304;53.520;10.104;2023-04-02T00:16:38;7.47;;;1.35;;
22270;SDS011;11304;53.520;10.104;2023-04-02T00:19:04;9.18;;;1.50;;
22270;SDS011;11304;53.520;10.104;2023-04-02T00:21:35;5.88;;;1.20;;
22270;SDS011;11304;53.520;10.104;2023-04-02T00:24:06;4.68;;;1.50;;
22270;SDS011;11304;53.520;10.104;2023-04-02T00:26:36;7.82;;;1.67;;
22270;SDS011;11304;53.520;10.104;2023-04-02T00:29:05;4.90;;;1.25;;
22270;SDS011;11304;53.520;10.104;2023-04-02T00:31:31;7.32;;;1.70;;
22270;SDS011;11304;53.520;10.104;2023-04-02T00:34:01;8.45;;;1.58;;
22270;SDS011;11304;53.520;10.104;2023-04-02T00:36:29;4.10;;;1.23;;
22270;SDS011;11304;53.520;10.104;2023-04-02T00:38:58;7.53;;;1.58;;
22270;SDS011;11304;53.520;10.104;2023-04-02T00:41:25;5.38;;;1.17;;
22270;SDS011;11304;53.520;10.104;2023-04-02T00:46:29;5.28;;;1.45;;
22270;SDS011;11304;53.520;10.104;2023-04-02T00:49:06;10.43;;;1.80;;
22270;SDS011;11304;53.520;10.104;2023-04-02T00:51:35;5.28;;;1.20;;
22270;SDS011;11304;53.520;10.104;2023-04-02T00:54:03;8.10;;;1.42;;
22270;SDS011;11304;53.520;10.104;2023-04-02T00:58:56;7.63;;;1.13;;
22270;SDS011;11304;53.520;10.104;2023-04-02T01:01:27;5.30;;;1.40;;
22270;SDS011;11304;53.520;10.104;2023-04-02T01:03:55;4.43;;;1.40;;
22270;SDS011;11304;53.520;10.104;2023-04-02T01:06:23;6.35;;;1.60;;
22270;SDS011;11304;53.520;10.104;2023-04-02T01:09:08;6.80;;;1.40;;
22270;SDS011;11304;53.520;10.104;2023-04-02T01:14:18;5.80;;;1.65;;
22270;SDS011;11304;53.520;10.104;2023-04-02T01:16:49;7.20;;;1.40;;
22270;SDS011;11304;53.520;10.104;2023-04-02T01:24:30;6.78;;;1.50;;
22270;SDS011;11304;53.520;10.104;2023-04-02T01:29:41;5.22;;;1.33;;
22270;SDS011;11304;53.520;10.104;2023-04-02T01:32:10;6.05;;;1.30;;
22270;SDS011;11304;53.520;10.104;2023-04-02T01:34:37;7.50;;;1.45;;
22270;SDS011;11304;53.520;10.104;2023-04-02T01:45:12;4.18;;;1.65;;
22270;SDS011;11304;53.520;10.104;2023-04-02T01:47:39;6.35;;;1.23;;
22270;SDS011;11304;53.520;10.104;2023-04-02T01:52:51;4.57;;;1.20;;
22270;SDS011;11304;53.520;10.104;2023-04-02T01:55:23;5.10;;;1.02;;
22270;SDS011;11304;53.520;10.104;2023-04-02T01:57:50;5.72;;;1.30;;
22270;SDS011;11304;53.520;10.104;2023-04-02T02:00:18;3.58;;;1.40;;
22270;SDS011;11304;53.520;10.104;2023-04-02T02:02:47;6.63;;;1.20;;
22270;SDS011;11304;53.520;10.104;2023-04-02T02:05:15;8.57;;;1.20;;
22270;SDS011;11304;53.520;10.104;2023-04-02T02:07:42;6.05;;;1.60;;
22270;SDS011;11304;53.520;10.104;2023-04-02T02:10:11;5.20;;;1.10;;
22270;SDS011;11304;53.520;10.104;2023-04-02T02:12:40;4.07;;;0.93;;
22270;SDS011;11304;53.520;10.104;2023-04-02T02:15:11;3.13;;;1.02;;
22270;SDS011;11304;53.520;10.104;2023-04-02T02:17:39;5.47;;;1.00;;
22270;SDS011;11304;53.520;10.104;2023-04-02T02:20:05;5.10;;;1.33;;
22270;SDS011;11304;53.520;10.104;2023-04-02T02:22:36;8.77;;;1.60;;
22270;SDS011;11304;53.520;10.104;2023-04-02T02:25:10;8.02;;;1.45;;
22270;SDS011;11304;53.520;10.104;2023-04-02T02:32:56;6.93;;;1.23;;
22270;SDS011;11304;53.520;10.104;2023-04-02T02:35:26;4.15;;;1.20;;
22270;SDS011;11304;53.520;10.104;2023-04-02T02:37:55;6.13;;;1.30;;
22270;SDS011;11304;53.520;10.104;2023-04-02T02:40:33;4.63;;;1.30;;
22270;SDS011;11304;53.520;10.104;2023-04-02T02:43:02;7.03;;;1.27;;
22270;SDS011;11304;53.520;10.104;2023-04-02T02:45:32;6.05;;;1.20;;
22270;SDS011;11304;53.520;10.104;2023-04-02T02:47:59;3.90;;;0.95;;
22270;SDS011;11304;53.520;10.104;2023-04-02T02:50:26;4.60;;;1.13;;
22270;SDS011;11304;53.520;10.104;2023-04-02T02:52:57;5.07;;;1.33;;
22270;SDS011;11304;53.520;10.104;2023-04-02T02:55:26;3.80;;;1.13;;
22270;SDS011;11304;53.520;10.104;2023-04-02T02:58:00;3.70;;;1.20;;
22270;SDS011;11304;53.520;10.104;2023-04-02T03:00:30;4.35;;;1.67;;
22270;SDS011;11304;53.520;10.104;2023-04-02T03:02:57;7.45;;;2.08;;
22270;SDS011;11304;53.520;10.104;2023-04-02T03:05:25;5.30;;;1.33;;
22270;SDS011;11304;53.520;10.104;2023-04-02T03:07:52;8.20;;;1.55;;
22270;SDS011;11304;53.520;10.104;2023-04-02T03:13:08;4.00;;;1.27;;
22270;SDS011;11304;53.520;10.104;2023-04-02T03:15:50;3.95;;;1.50;;
22270;SDS011;11304;53.520;10.104;2023-04-02T03:18:26;6.75;;;1.30;;
22270;SDS011;11304;53.520;10.104;2023-04-02T03:20:55;5.00;;;1.15;;
22270;SDS011;11304;53.520;10.104;2023-04-02T03:26:11;6.32;;;1.27;;
22270;SDS011;11304;53.520;10.104;2023-04-02T03:28:38;3.65;;;0.98;;
22270;SDS011;11304;53.520;10.104;2023-04-02T03:31:07;2.88;;;0.93;;
22270;SDS011;11304;53.520;10.104;2023-04-02T03:33:37;4.68;;;1.60;;
22270;SDS011;11304;53.520;10.104;2023-04-02T03:38:42;6.35;;;0.95;;
22270;SDS011;11304;53.520;10.104;2023-04-02T03:41:21;3.95;;;1.17;;
22270;SDS011;11304;53.520;10.104;2023-04-02T03:43:51;6.68;;;1.35;;
22270;SDS011;11304;53.520;10.104;2023-04-02T03:46:23;5.15;;;1.42;;
22270;SDS011;11304;53.520;10.104;2023-04-02T03:48:53;6.25;;;1.13;;
22270;SDS011;11304;53.520;10.104;2023-04-02T03:51:26;4.00;;;0.77;;
22270;SDS011;11304;53.520;10.104;2023-04-02T03:53:53;5.70;;;1.10;;
22270;SDS011;11304;53.520;10.104;2023-04-02T03:56:30;8.15;;;1.30;;
22270;SDS011;11304;53.520;10.104;2023-04-02T04:01:43;4.78;;;1.10;;
22270;SDS011;11304;53.520;10.104;2023-04-02T04:04:15;6.60;;;1.20;;
22270;SDS011;11304;53.520;10.104;2023-04-02T04:06:42;5.72;;;1.30;;
22270;SDS011;11304;53.520;10.104;2023-04-02T04:09:21;3.78;;;0.82;;
22270;SDS011;11304;53.520;10.104;2023-04-02T04:14:16;4.03;;;0.77;;
22270;SDS011;11304;53.520;10.104;2023-04-02T04:17:01;3.88;;;0.95;;
22270;SDS011;11304;53.520;10.104;2023-04-02T04:19:40;3.95;;;0.93;;
22270;SDS011;11304;53.520;10.104;2023-04-02T04:22:22;7.47;;;1.40;;
22270;SDS011;11304;53.520;10.104;2023-04-02T04:24:59;6.53;;;1.35;;
22270;SDS011;11304;53.520;10.104;2023-04-02T04:27:37;6.25;;;1.40;;
22270;SDS011;11304;53.520;10.104;2023-04-02T04:32:42;6.97;;;1.13;;
22270;SDS011;11304;53.520;10.104;2023-04-02T04:38:35;4.03;;;1.15;;
22270;SDS011;11304;53.520;10.104;2023-04-02T04:40:45;7.60;;;1.20;;
22270;SDS011;11304;53.520;10.104;2023-04-02T04:44:03;3.55;;;0.77;;
22270;SDS011;11304;53.520;10.104;2023-04-02T04:46:26;6.18;;;0.80;;
22270;SDS011;11304;53.520;10.104;2023-04-02T04:49:01;5.05;;;1.00;;
22270;SDS011;11304;53.520;10.104;2023-04-02T04:51:34;3.15;;;0.63;;
22270;SDS011;11304;53.520;10.104;2023-04-02T04:54:02;6.50;;;1.10;;
22270;SDS011;11304;53.520;10.104;2023-04-02T04:56:28;2.58;;;0.75;;
22270;SDS011;11304;53.520;10.104;2023-04-02T05:06:39;5.03;;;1.08;;
22270;SDS011;11304;53.520;10.104;2023-04-02T05:14:40;4.60;;;0.85;;
22270;SDS011;11304;53.520;10.104;2023-04-02T05:17:18;5.60;;;1.00;;
22270;SDS011;11304;53.520;10.104;2023-04-02T05:19:48;5.03;;;0.93;;
22270;SDS011;11304;53.520;10.104;2023-04-02T05:22:28;3.75;;;0.90;;
22270;SDS011;11304;53.520;10.104;2023-04-02T05:25:06;4.15;;;0.82;;
22270;SDS011;11304;53.520;10.104;2023-04-02T05:30:46;4.07;;;0.75;;
22270;SDS011;11304;53.520;10.104;2023-04-02T05:32:56;3.95;;;0.70;;
22270;SDS011;11304;53.520;10.104;2023-04-02T05:35:32;4.22;;;1.00;;
22270;SDS011;11304;53.520;10.104;2023-04-02T05:37:59;5.18;;;0.82;;
22270;SDS011;11304;53.520;10.104;2023-04-02T05:40:28;2.85;;;0.70;;
22270;SDS011;11304;53.520;10.104;2023-04-02T05:42:56;3.50;;;0.82;;
22270;SDS011;11304;53.520;10.104;2023-04-02T05:47:50;5.45;;;1.02;;
22270;SDS011;11304;53.520;10.104;2023-04-02T05:52:45;4.00;;;0.85;;
22270;SDS011;11304;53.520;10.104;2023-04-02T06:00:08;6.95;;;0.98;;
22270;SDS011;11304;53.520;10.104;2023-04-02T06:02:38;5.63;;;0.95;;
22270;SDS011;11304;53.520;10.104;2023-04-02T06:05:25;3.83;;;1.02;;
22270;SDS011;11304;53.520;10.104;2023-04-02T06:08:05;6.68;;;0.90;;
22270;SDS011;11304;53.520;10.104;2023-04-02T06:10:33;3.22;;;0.63;;
22270;SDS011;11304;53.520;10.104;2023-04-02T06:13:06;4.47;;;0.80;;
22270;SDS011;11304;53.520;10.104;2023-04-02T06:15:34;3.25;;;1.08;;
22270;SDS011;11304;53.520;10.104;2023-04-02T06:20:33;3.92;;;0.85;;
22270;SDS011;11304;53.520;10.104;2023-04-02T06:25:27;2.30;;;0.80;;
22270;SDS011;11304;53.520;10.104;2023-04-02T06:27:56;4.72;;;0.85;;
22270;SDS011;11304;53.520;10.104;2023-04-02T06:30:34;6.82;;;1.08;;
22270;SDS011;11304;53.520;10.104;2023-04-02T06:33:01;4.28;;;1.00;;
22270;SDS011;11304;53.520;10.104;2023-04-02T06:35:27;5.22;;;1.00;;
22270;SDS011;11304;53.520;10.104;2023-04-02T06:37:54;7.00;;;1.30;;
22270;SDS011;11304;53.520;10.104;2023-04-02T06:40:25;5.63;;;0.88;;
22270;SDS011;11304;53.520;10.104;2023-04-02T06:42:53;4.00;;;0.73;;
22270;SDS011;11304;53.520;10.104;2023-04-02T06:45:25;3.15;;;0.63;;
22270;SDS011;11304;53.520;10.104;2023-04-02T06:47:53;4.97;;;0.90;;
22270;SDS011;11304;53.520;10.104;2023-04-02T06:57:42;5.55;;;0.93;;
22270;SDS011;11304;53.520;10.104;2023-04-02T07:00:10;3.88;;;0.98;;
22270;SDS011;11304;53.520;10.104;2023-04-02T07:02:48;5.00;;;0.80;;
22270;SDS011;11304;53.520;10.104;2023-04-02T07:05:15;5.32;;;1.05;;
22270;SDS011;11304;53.520;10.104;2023-04-02T07:07:41;3.83;;;1.00;;
22270;SDS011;11304;53.520;10.104;2023-04-02T07:10:07;3.25;;;0.93;;
22270;SDS011;11304;53.520;10.104;2023-04-02T07:12:34;7.28;;;1.20;;
22270;SDS011;11304;53.520;10.104;2023-04-02T07:15:00;4.55;;;1.00;;
22270;SDS011;11304;53.520;10.104;2023-04-02T07:17:26;5.55;;;0.90;;
22270;SDS011;11304;53.520;10.104;2023-04-02T07:19:52;4.32;;;1.25;;
22270;SDS011;11304;53.520;10.104;2023-04-02T07:22:19;5.22;;;1.25;;
22270;SDS011;11304;53.520;10.104;2023-04-02T07:24:45;4.55;;;0.85;;
22270;SDS011;11304;53.520;10.104;2023-04-02T07:27:12;4.68;;;1.10;;
22270;SDS011;11304;53.520;10.104;2023-04-02T07:29:38;6.93;;;0.90;;
22270;SDS011;11304;53.520;10.104;2023-04-02T07:32:07;4.80;;;1.10;;
22270;SDS011;11304;53.520;10.104;2023-04-02T07:34:33;2.65;;;0.73;;
22270;SDS011;11304;53.520;10.104;2023-04-02T07:37:00;5.28;;;0.75;;
22270;SDS011;11304;53.520;10.104;2023-04-02T07:39:26;5.00;;;1.17;;
22270;SDS011;11304;53.520;10.104;2023-04-02T07:41:53;4.22;;;0.90;;
22270;SDS011;11304;53.520;10.104;2023-04-02T07:44:20;4.70;;;0.98;;
22270;SDS011;11304;53.520;10.104;2023-04-02T07:46:46;6.85;;;0.95;;
22270;SDS011;11304;53.520;10.104;2023-04-02T07:49:12;4.50;;;0.73;;
22270;SDS011;11304;53.520;10.104;2023-04-02T07:51:38;4.78;;;1.10;;
22270;SDS011;11304;53.520;10.104;2023-04-02T07:54:04;4.38;;;0.98;;
22270;SDS011;11304;53.520;10.104;2023-04-02T07:56:31;3.67;;;0.63;;
22270;SDS011;11304;53.520;10.104;2023-04-02T07:58:57;4.20;;;1.05;;
22270;SDS011;11304;53.520;10.104;2023-04-02T08:01:24;5.40;;;0.80;;
22270;SDS011;11304;53.520;10.104;2023-04-02T08:03:51;4.50;;;0.90;;
22270;SDS011;11304;53.520;10.104;2023-04-02T08:06:17;3.20;;;0.80;;
22270;SDS011;11304;53.520;10.104;2023-04-02T08:08:43;1.70;;;0.70;;
22270;SDS011;11304;53.520;10.104;2023-04-02T08:11:10;3.78;;;0.60;;
22270;SDS011;11304;53.520;10.104;2023-04-02T08:13:36;5.63;;;1.08;;
22270;SDS011;11304;53.520;10.104;2023-04-02T08:16:02;3.65;;;1.00;;
22270;SDS011;11304;53.520;10.104;2023-04-02T08:18:29;2.78;;;0.82;;
22270;SDS011;11304;53.520;10.104;2023-04-02T08:20:55;2.60;;;0.70;;
22270;SDS011;11304;53.520;10.104;2023-04-02T08:23:22;4.72;;;1.15;;
22270;SDS011;11304;53.520;10.104;2023-04-02T08:25:48;4.78;;;1.00;;
22270;SDS011;11304;53.520;10.104;2023-04-02T08:28:15;4.30;;;0.85;;
22270;SDS011;11304;53.520;10.104;2023-04-02T08:30:41;2.42;;;0.52;;
22270;SDS011;11304;53.520;10.104;2023-04-02T08:33:08;3.00;;;0.70;;
22270;SDS011;11304;53.520;10.104;2023-04-02T08:35:34;6.00;;;0.70;;
22270;SDS011;11304;53.520;10.104;2023-04-02T08:38:00;3.25;;;0.70;;
22270;SDS011;11304;53.520;10.104;2023-04-02T08:40:31;5.93;;;0.90;;
22270;SDS011;11304;53.520;10.104;2023-04-02T08:48:03;2.53;;;0.70;;
22270;SDS011;11304;53.520;10.104;2023-04-02T08:50:34;2.58;;;0.80;;
22270;SDS011;11304;53.520;10.104;2023-04-02T08:53:01;3.78;;;0.60;;
22270;SDS011;11304;53.520;10.104;2023-04-02T08:55:40;4.28;;;0.75;;
22270;SDS011;11304;53.520;10.104;2023-04-02T09:00:39;5.63;;;0.88;;
22270;SDS011;11304;53.520;10.104;2023-04-02T09:05:32;3.33;;;1.10;;
22270;SDS011;11304;53.520;10.104;2023-04-02T09:08:01;5.18;;;1.30;;
22270;SDS011;11304;53.520;10.104;2023-04-02T09:10:41;3.25;;;0.50;;
22270;SDS011;11304;53.520;10.104;2023-04-02T09:13:15;1.90;;;0.85;;
22270;SDS011;11304;53.520;10.104;2023-04-02T09:15:42;3.55;;;1.02;;
22270;SDS011;11304;53.520;10.104;2023-04-02T09:18:14;4.38;;;0.70;;
22270;SDS011;11304;53.520;10.104;2023-04-02T09:20:40;3.10;;;0.63;;
22270;SDS011;11304;53.520;10.104;2023-04-02T09:23:09;8.48;;;1.20;;
22270;SDS011;11304;53.520;10.104;2023-04-02T09:25:42;3.70;;;0.70;;
22270;SDS011;11304;53.520;10.104;2023-04-02T09:28:09;3.97;;;0.80;;
22270;SDS011;11304;53.520;10.104;2023-04-02T09:33:24;4.35;;;0.90;;
22270;SDS011;11304;53.520;10.104;2023-04-02T09:36:05;4.65;;;0.90;;
22270;SDS011;11304;53.520;10.104;2023-04-02T09:38:34;6.20;;;0.68;;
22270;SDS011;11304;53.520;10.104;2023-04-02T09:41:01;1.73;;;0.65;;
22270;SDS011;11304;53.520;10.104;2023-04-02T09:43:29;4.13;;;1.05;;
22270;SDS011;11304;53.520;10.104;2023-04-02T09:46:21;3.20;;;0.90;;
22270;SDS011;11304;53.520;10.104;2023-04-02T09:48:54;3.17;;;0.75;;
22270;SDS011;11304;53.520;10.104;2023-04-02T09:51:29;3.00;;;0.63;;
22270;SDS011;11304;53.520;10.104;2023-04-02T09:56:30;1.65;;;0.60;;
22270;SDS011;11304;53.520;10.104;2023-04-02T10:03:55;2.40;;;0.75;;
22270;SDS011;11304;53.520;10.104;2023-04-02T10:06:23;4.35;;;0.93;;
22270;SDS011;11304;53.520;10.104;2023-04-02T10:08:49;2.20;;;0.70;;
22270;SDS011;11304;53.520;10.104;2023-04-02T10:11:33;2.00;;;0.47;;
22270;SDS011;11304;53.520;10.104;2023-04-02T10:16:53;4.07;;;0.70;;
22270;SDS011;11304;53.520;10.104;2023-04-02T10:19:28;4.93;;;1.15;;
22270;SDS011;11304;53.520;10.104;2023-04-02T10:21:56;2.90;;;0.60;;
22270;SDS011;11304;53.520;10.104;2023-04-02T10:24:25;3.85;;;0.82;;
22270;SDS011;11304;53.520;10.104;2023-04-02T10:26:54;3.65;;;0.75;;
22270;SDS011;11304;53.520;10.104;2023-04-02T10:34:19;2.63;;;0.70;;
22270;SDS011;11304;53.520;10.104;2023-04-02T10:36:50;2.65;;;0.65;;
22270;SDS011;11304;53.520;10.104;2023-04-02T10:39:37;1.48;;;0.70;;
22270;SDS011;11304;53.520;10.104;2023-04-02T10:55:17;3.53;;;0.60;;
22270;SDS011;11304;53.520;10.104;2023-04-02T10:57:45;2.13;;;0.77;;
22270;SDS011;11304;53.520;10.104;2023-04-02T11:02:46;2.90;;;0.73;;
22270;SDS011;11304;53.520;10.104;2023-04-02T11:07:53;3.88;;;0.70;;
22270;SDS011;11304;53.520;10.104;2023-04-02T11:10:20;3.37;;;0.67;;
22270;SDS011;11304;53.520;10.104;2023-04-02T11:13:04;3.90;;;0.93;;
22270;SDS011;11304;53.520;10.104;2023-04-02T11:15:30;3.95;;;0.80;;
22270;SDS011;11304;53.520;10.104;2023-04-02T11:17:57;2.42;;;0.80;;
22270;SDS011;11304;53.520;10.104;2023-04-02T11:23:09;2.80;;;0.60;;
22270;SDS011;11304;53.520;10.104;2023-04-02T11:25:35;2.53;;;1.10;;
22270;SDS011;11304;53.520;10.104;2023-04-02T11:28:19;4.10;;;0.85;;
22270;SDS011;11304;53.520;10.104;2023-04-02T11:30:51;5.22;;;0.82;;
22270;SDS011;11304;53.520;10.104;2023-04-02T11:35:49;2.97;;;0.50;;
22270;SDS011;11304;53.520;10.104;2023-04-02T11:40:49;1.00;;;0.52;;
22270;SDS011;11304;53.520;10.104;2023-04-02T11:43:58;3.63;;;1.00;;
22270;SDS011;11304;53.520;10.104;2023-04-02T11:46:29;7.13;;;0.70;;
22270;SDS011;11304;53.520;10.104;2023-04-02T11:48:51;2.30;;;0.65;;
22270;SDS011;11304;53.520;10.104;2023-04-02T11:53:46;1.98;;;0.80;;
22270;SDS011;11304;53.520;10.104;2023-04-02T11:56:20;2.75;;;0.80;;
22270;SDS011;11304;53.520;10.104;2023-04-02T12:06:46;3.13;;;0.68;;
22270;SDS011;11304;53.520;10.104;2023-04-02T12:09:20;3.00;;;0.90;;
22270;SDS011;11304;53.520;10.104;2023-04-02T12:11:47;3.40;;;0.80;;
22270;SDS011;11304;53.520;10.104;2023-04-02T12:16:59;2.90;;;0.80;;
22270;SDS011;11304;53.520;10.104;2023-04-02T12:19:25;4.03;;;0.80;;
22270;SDS011;11304;53.520;10.104;2023-04-02T12:21:54;4.35;;;1.00;;
22270;SDS011;11304;53.520;10.104;2023-04-02T12:24:22;4.20;;;0.95;;
22270;SDS011;11304;53.520;10.104;2023-04-02T12:27:05;3.17;;;0.88;;
22270;SDS011;11304;53.520;10.104;2023-04-02T12:29:32;4.57;;;1.00;;
22270;SDS011;11304;53.520;10.104;2023-04-02T12:32:00;2.97;;;1.10;;
22270;SDS011;11304;53.520;10.104;2023-04-02T12:34:28;3.60;;;1.00;;
22270;SDS011;11304;53.520;10.104;2023-04-02T12:36:58;2.17;;;0.70;;
22270;SDS011;11304;53.520;10.104;2023-04-02T12:39:26;5.18;;;0.98;;
22270;SDS011;11304;53.520;10.104;2023-04-02T12:41:53;2.97;;;0.70;;
22270;SDS011;11304;53.520;10.104;2023-04-02T12:44:20;2.08;;;0.60;;
22270;SDS011;11304;53.520;10.104;2023-04-02T12:46:47;3.95;;;1.00;;
22270;SDS011;11304;53.520;10.104;2023-04-02T12:52:17;3.65;;;1.00;;
22270;SDS011;11304;53.520;10.104;2023-04-02T12:54:51;3.83;;;1.02;;
22270;SDS011;11304;53.520;10.104;2023-04-02T12:59:51;4.13;;;1.10;;
22270;SDS011;11304;53.520;10.104;2023-04-02T13:02:23;5.65;;;1.00;;
22270;SDS011;11304;53.520;10.104;2023-04-02T13:04:59;4.25;;;0.95;;
22270;SDS011;11304;53.520;10.104;2023-04-02T13:07:27;3.58;;;1.05;;
22270;SDS011;11304;53.520;10.104;2023-04-02T13:09:58;4.78;;;0.95;;
22270;SDS011;11304;53.520;10.104;2023-04-02T13:12:26;3.05;;;0.70;;
22270;SDS011;11304;53.520;10.104;2023-04-02T13:14:56;3.80;;;1.08;;
22270;SDS011;11304;53.520;10.104;2023-04-02T13:17:36;5.57;;;0.98;;
22270;SDS011;11304;53.520;10.104;2023-04-02T13:22:47;2.83;;;0.70;;
22270;SDS011;11304;53.520;10.104;2023-04-02T13:25:13;4.90;;;1.20;;
22270;SDS011;11304;53.520;10.104;2023-04-02T13:27:40;5.53;;;1.35;;
22270;SDS011;11304;53.520;10.104;2023-04-02T13:30:08;4.07;;;1.00;;
22270;SDS011;11304;53.520;10.104;2023-04-02T13:32:35;4.25;;;1.10;;
22270;SDS011;11304;53.520;10.104;2023-04-02T13:35:02;3.55;;;1.00;;
22270;SDS011;11304;53.520;10.104;2023-04-02T13:37:28;2.30;;;0.85;;
22270;SDS011;11304;53.520;10.104;2023-04-02T13:39:54;5.38;;;1.35;;
22270;SDS011;11304;53.520;10.104;2023-04-02T13:42:20;3.95;;;0.95;;
22270;SDS011;11304;53.520;10.104;2023-04-02T13:44:46;7.28;;;0.95;;
22270;SDS011;11304;53.520;10.104;2023-04-02T13:47:13;3.35;;;0.80;;
22270;SDS011;11304;53.520;10.104;2023-04-02T13:49:39;2.95;;;0.70;;
22270;SDS011;11304;53.520;10.104;2023-04-02T13:52:05;3.03;;;1.00;;
22270;SDS011;11304;53.520;10.104;2023-04-02T13:57:31;6.10;;;0.98;;
22270;SDS011;11304;53.520;10.104;2023-04-02T13:59:58;3.25;;;0.88;;
22270;SDS011;11304;53.520;10.104;2023-04-02T14:02:24;4.25;;;1.02;;
22270;SDS011;11304;53.520;10.104;2023-04-02T14:04:52;3.10;;;0.90;;
22270;SDS011;11304;53.520;10.104;2023-04-02T14:15:27;8.35;;;1.20;;
22270;SDS011;11304;53.520;10.104;2023-04-02T14:32:55;5.20;;;1.10;;
22270;SDS011;11304;53.520;10.104;2023-04-02T14:43:03;6.03;;;1.30;;
22270;SDS011;11304;53.520;10.104;2023-04-02T14:48:05;5.85;;;1.05;;
22270;SDS011;11304;53.520;10.104;2023-04-02T14:50:37;6.25;;;1.38;;
22270;SDS011;11304;53.520;10.104;2023-04-02T14:53:08;4.25;;;1.30;;
22270;SDS011;11304;53.520;10.104;2023-04-02T14:55:40;3.70;;;1.20;;
22270;SDS011;11304;53.520;10.104;2023-04-02T15:01:17;3.92;;;1.13;;
22270;SDS011;11304;53.520;10.104;2023-04-02T15:03:47;6.72;;;1.70;;
22270;SDS011;11304;53.520;10.104;2023-04-02T15:06:16;5.15;;;1.40;;
22270;SDS011;11304;53.520;10.104;2023-04-02T15:08:48;5.05;;;1.17;;
22270;SDS011;11304;53.520;10.104;2023-04-02T15:11:24;5.03;;;1.13;;
22270;SDS011;11304;53.520;10.104;2023-04-02T15:19:17;3.35;;;1.30;;
22270;SDS011;11304;53.520;10.104;2023-04-02T15:24:25;7.10;;;1.38;;
22270;SDS011;11304;53.520;10.104;2023-04-02T15:32:11;5.25;;;1.20;;
22270;SDS011;11304;53.520;10.104;2023-04-02T15:34:43;6.13;;;1.40;;
22270;SDS011;11304;53.520;10.104;2023-04-02T15:37:21;5.13;;;1.23;;
22270;SDS011;11304;53.520;10.104;2023-04-02T15:42:29;6.13;;;1.58;;
22270;SDS011;11304;53.520;10.104;2023-04-02T15:50:41;4.57;;;1.50;;
22270;SDS011;11304;53.520;10.104;2023-04-02T15:52:48;5.25;;;1.35;;
22270;SDS011;11304;53.520;10.104;2023-04-02T15:55:25;6.93;;;1.60;;
22270;SDS011;11304;53.520;10.104;2023-04-02T16:08:17;4.95;;;1.08;;
22270;SDS011;11304;53.520;10.104;2023-04-02T16:10:46;9.23;;;1.38;;
22270;SDS011;11304;53.520;10.104;2023-04-02T16:16:10;5.35;;;1.30;;
22270;SDS011;11304;53.520;10.104;2023-04-02T16:18:44;5.65;;;1.42;;
22270;SDS011;11304;53.520;10.104;2023-04-02T16:21:16;6.13;;;1.50;;
22270;SDS011;11304;53.520;10.104;2023-04-02T16:23:44;5.88;;;1.27;;
22270;SDS011;11304;53.520;10.104;2023-04-02T16:34:05;4.50;;;1.00;;
22270;SDS011;11304;53.520;10.104;2023-04-02T16:36:58;5.97;;;1.58;;
22270;SDS011;11304;53.520;10.104;2023-04-02T16:39:24;6.20;;;1.08;;
22270;SDS011;11304;53.520;10.104;2023-04-02T17:02:31;3.67;;;0.90;;
22270;SDS011;11304;53.520;10.104;2023-04-02T17:07:33;3.67;;;0.80;;
22270;SDS011;11304;53.520;10.104;2023-04-02T17:10:09;4.65;;;1.20;;
22270;SDS011;11304;53.520;10.104;2023-04-02T17:12:46;3.47;;;1.10;;
22270;SDS011;11304;53.520;10.104;2023-04-02T17:15:19;2.92;;;0.95;;
22270;SDS011;11304;53.520;10.104;2023-04-02T17:17:47;8.20;;;1.50;;
22270;SDS011;11304;53.520;10.104;2023-04-02T17:20:17;3.92;;;0.80;;
22270;SDS011;11304;53.520;10.104;2023-04-02T17:22:45;3.10;;;0.90;;
22270;SDS011;11304;53.520;10.104;2023-04-02T17:25:17;3.75;;;1.63;;
22270;SDS011;11304;53.520;10.104;2023-04-02T17:27:47;6.28;;;1.13;;
22270;SDS011;11304;53.520;10.104;2023-04-02T17:32:42;3.72;;;1.20;;
22270;SDS011;11304;53.520;10.104;2023-04-02T17:37:43;5.43;;;1.38;;
22270;SDS011;11304;53.520;10.104;2023-04-02T17:40:24;3.60;;;0.82;;
22270;SDS011;11304;53.520;10.104;2023-04-02T17:47:45;3.47;;;0.90;;
22270;SDS011;11304;53.520;10.104;2023-04-02T18:00:15;4.68;;;1.23;;
22270;SDS011;11304;53.520;10.104;2023-04-02T18:03:01;3.90;;;1.10;;
22270;SDS011;11304;53.520;10.104;2023-04-02T18:05:32;5.65;;;1.40;;
22270;SDS011;11304;53.520;10.104;2023-04-02T18:10:57;5.13;;;1.38;;
22270;SDS011;11304;53.520;10.104;2023-04-02T18:13:41;5.47;;;1.75;;
22270;SDS011;11304;53.520;10.104;2023-04-02T18:21:35;5.43;;;1.35;;
22270;SDS011;11304;53.520;10.104;2023-04-02T18:29:50;3.10;;;1.52;;
22270;SDS011;11304;53.520;10.104;2023-04-02T18:48:03;4.65;;;1.50;;
22270;SDS011;11304;53.520;10.104;2023-04-02T18:50:33;2.83;;;1.17;;
22270;SDS011;11304;53.520;10.104;2023-04-02T18:53:13;4.32;;;1.17;;
22270;SDS011;11304;53.520;10.104;2023-04-02T18:55:41;2.70;;;1.10;;
22270;SDS011;11304;53.520;10.104;2023-04-02T18:58:11;6.63;;;1.33;;
22270;SDS011;11304;53.520;10.104;2023-04-02T19:00:40;3.65;;;1.40;;
22270;SDS011;11304;53.520;10.104;2023-04-02T19:03:22;4.20;;;1.20;;
22270;SDS011;11304;53.520;10.104;2023-04-02T19:05:57;3.58;;;1.15;;
22270;SDS011;11304;53.520;10.104;2023-04-02T19:11:24;4.25;;;1.38;;
22270;SDS011;11304;53.520;10.104;2023-04-02T19:14:11;6.47;;;1.10;;
22270;SDS011;11304;53.520;10.104;2023-04-02T19:26:57;3.55;;;1.33;;
22270;SDS011;11304;53.520;10.104;2023-04-02T19:34:36;5.78;;;1.70;;
22270;SDS011;11304;53.520;10.104;2023-04-02T19:37:08;5.43;;;1.58;;
22270;SDS011;11304;53.520;10.104;2023-04-02T19:44:43;8.15;;;1.67;;
22270;SDS011;11304;53.520;10.104;2023-04-02T19:47:10;5.30;;;1.30;;
22270;SDS011;11304;53.520;10.104;2023-04-02T19:49:38;5.05;;;1.50;;
22270;SDS011;11304;53.520;10.104;2023-04-02T19:52:04;6.15;;;1.75;;
22270;SDS011;11304;53.520;10.104;2023-04-02T19:54:30;6.20;;;1.20;;
22270;SDS011;11304;53.520;10.104;2023-04-02T19:56:56;6.22;;;1.77;;
22270;SDS011;11304;53.520;10.104;2023-04-02T19:59:24;7.75;;;1.85;;
22270;SDS011;11304;53.520;10.104;2023-04-02T20:01:50;4.85;;;1.55;;
22270;SDS011;11304;53.520;10.104;2023-04-02T20:04:16;6.35;;;1.25;;
22270;SDS011;11304;53.520;10.104;2023-04-02T20:06:42;6.38;;;1.67;;
22270;SDS011;11304;53.520;10.104;2023-04-02T20:09:08;6.03;;;1.70;;
22270;SDS011;11304;53.520;10.104;2023-04-02T20:11:35;6.78;;;1.77;;
22270;SDS011;11304;53.520;10.104;2023-04-02T20:14:02;5.47;;;1.80;;
22270;SDS011;11304;53.520;10.104;2023-04-02T20:16:28;10.65;;;1.70;;
22270;SDS011;11304;53.520;10.104;2023-04-02T20:18:54;9.40;;;2.25;;
22270;SDS011;11304;53.520;10.104;2023-04-02T20:21:20;7.05;;;1.80;;
22270;SDS011;11304;53.520;10.104;2023-04-02T20:23:47;6.55;;;1.23;;
22270;SDS011;11304;53.520;10.104;2023-04-02T20:26:13;6.53;;;1.45;;
22270;SDS011;11304;53.520;10.104;2023-04-02T20:28:39;7.03;;;1.67;;
22270;SDS011;11304;53.520;10.104;2023-04-02T20:31:09;7.90;;;1.67;;
22270;SDS011;11304;53.520;10.104;2023-04-02T20:33:36;7.65;;;2.47;;
22270;SDS011;11304;53.520;10.104;2023-04-02T20:36:03;6.22;;;1.17;;
22270;SDS011;11304;53.520;10.104;2023-04-02T20:38:30;6.73;;;1.70;;
22270;SDS011;11304;53.520;10.104;2023-04-02T20:40:56;9.32;;;1.65;;